createdAt,value
2019-04-20T00:00:52.993Z,8.41
2019-04-20T00:01:48.865Z,8.37
2019-04-20T00:02:53.486Z,8.38
2019-04-20T00:03:50.153Z,8.20
2019-04-20T00:04:49.470Z,8.28
2019-04-20T00:05:49.006Z,8.30
2019-04-20T00:06:51.662Z,8.25
2019-04-20T00:07:50.096Z,8.28
2019-04-20T00:08:55.629Z,8.23
2019-04-20T00:09:56.665Z,8.36
2019-04-20T00:10:58.346Z,8.23
2019-04-20T00:12:00.089Z,8.30
2019-04-20T00:13:02.060Z,8.34
2019-04-20T00:13:59.179Z,8.26
2019-04-20T00:14:49.941Z,8.22
2019-04-20T00:15:49.240Z,8.23
2019-04-20T00:16:48.556Z,8.26
2019-04-20T00:17:55.049Z,8.22
2019-04-20T00:18:53.179Z,8.26
2019-04-20T00:19:53.558Z,8.30
2019-04-20T00:20:50.415Z,8.26
2019-04-20T00:21:55.311Z,8.20
2019-04-20T00:22:50.890Z,8.26
2019-04-20T00:23:50.282Z,8.29
2019-04-20T00:24:51.583Z,8.16
2019-04-20T00:26:00.465Z,8.29
2019-04-20T00:28:04.427Z,8.11
2019-04-20T00:29:07.062Z,8.26
2019-04-20T00:30:03.359Z,8.19
2019-04-20T00:31:07.142Z,8.16
2019-04-20T00:32:01.631Z,8.23
2019-04-20T00:33:01.069Z,8.16
2019-04-20T00:33:59.454Z,8.23
2019-04-20T00:34:49.551Z,8.11
2019-04-20T00:35:48.493Z,8.26
2019-04-20T00:36:48.132Z,8.11
2019-04-20T00:37:48.788Z,8.18
2019-04-20T00:38:53.038Z,8.19
2019-04-20T00:39:48.839Z,8.12
2019-04-20T00:40:49.531Z,8.10
2019-04-20T00:41:55.350Z,8.15
2019-04-20T00:42:52.471Z,8.16
2019-04-20T00:43:49.190Z,8.18
2019-04-20T00:44:58.799Z,8.08
2019-04-20T00:45:55.900Z,8.12
2019-04-20T00:47:06.073Z,8.11
2019-04-20T00:47:57.351Z,8.08
2019-04-20T00:48:55.978Z,8.02
2019-04-20T00:50:02.648Z,8.08
2019-04-20T00:51:11.497Z,8.08
2019-04-20T00:52:13.165Z,8.07
2019-04-20T00:53:02.175Z,8.00
2019-04-20T00:53:51.671Z,7.97
2019-04-20T00:54:47.753Z,8.01
2019-04-20T00:55:48.553Z,8.02
2019-04-20T00:56:47.882Z,8.00
2019-04-20T00:57:54.831Z,7.93
2019-04-20T00:58:57.476Z,7.87
2019-04-20T01:00:06.170Z,7.86
2019-04-20T01:01:06.889Z,7.83
2019-04-20T01:02:06.131Z,7.86
2019-04-20T01:03:00.990Z,7.89
2019-04-20T01:04:13.156Z,7.89
2019-04-20T01:05:04.009Z,7.82
2019-04-20T01:06:06.508Z,7.86
2019-04-20T01:07:01.556Z,7.80
2019-04-20T01:07:54.683Z,7.79
2019-04-20T01:08:48.483Z,7.79
2019-04-20T01:09:47.852Z,7.80
2019-04-20T01:10:51.492Z,7.74
2019-04-20T01:11:48.559Z,7.71
2019-04-20T01:12:50.792Z,7.74
2019-04-20T01:13:53.602Z,7.72
2019-04-20T01:14:55.159Z,7.71
2019-04-20T01:15:55.429Z,7.74
2019-04-20T01:16:54.950Z,7.75
2019-04-20T01:17:47.261Z,7.72
2019-04-20T01:18:48.100Z,7.74
2019-04-20T01:19:48.900Z,7.74
2019-04-20T01:20:47.374Z,7.71
2019-04-20T01:21:54.816Z,7.64
2019-04-20T01:22:56.093Z,7.61
2019-04-20T01:23:53.269Z,7.53
2019-04-20T01:24:48.719Z,7.46
2019-04-20T01:25:55.193Z,7.57
2019-04-20T01:26:51.659Z,7.53
2019-04-20T01:28:06.769Z,7.45
2019-04-20T01:29:01.780Z,7.35
2019-04-20T01:29:51.418Z,7.31
2019-04-20T01:30:59.983Z,7.23
2019-04-20T01:32:03.619Z,7.25
2019-04-20T01:33:00.159Z,7.24
2019-04-20T01:33:56.313Z,7.15
2019-04-20T01:34:56.453Z,7.12
2019-04-20T01:36:03.518Z,7.06
2019-04-20T01:37:04.520Z,7.12
2019-04-20T01:38:07.262Z,7.03
2019-04-20T01:39:01.389Z,7.05
2019-04-20T01:39:50.833Z,6.95
2019-04-20T01:40:46.765Z,7.07
2019-04-20T01:41:47.668Z,7.03
2019-04-20T01:42:46.888Z,7.02
2019-04-20T01:43:48.007Z,6.99
2019-04-20T01:44:50.529Z,6.92
2019-04-20T01:45:47.640Z,6.94
2019-04-20T01:46:52.868Z,6.99
2019-04-20T01:47:51.442Z,6.99
2019-04-20T01:48:46.598Z,6.87
2019-04-20T01:49:47.717Z,6.88
2019-04-20T01:50:56.307Z,6.89
2019-04-20T01:51:57.508Z,6.85
2019-04-20T01:52:58.349Z,6.91
2019-04-20T01:54:03.889Z,6.85
2019-04-20T01:55:08.691Z,6.84
2019-04-20T01:56:05.423Z,6.85
2019-04-20T01:56:59.120Z,6.89
2019-04-20T01:58:06.081Z,6.88
2019-04-20T01:59:04.688Z,6.89
2019-04-20T01:59:57.238Z,6.88
2019-04-20T02:00:48.132Z,6.88
2019-04-20T02:01:47.526Z,6.88
2019-04-20T02:02:52.065Z,6.76
2019-04-20T02:03:48.954Z,6.87
2019-04-20T02:04:49.347Z,6.85
2019-04-20T02:05:54.027Z,6.84
2019-04-20T02:06:52.095Z,6.76
2019-04-20T02:07:49.372Z,6.85
2019-04-20T02:08:46.371Z,6.79
2019-04-20T02:09:53.472Z,6.70
2019-04-20T02:10:52.455Z,6.73
2019-04-20T02:11:49.778Z,6.73
2019-04-20T02:12:51.365Z,6.73
2019-04-20T02:13:52.906Z,6.73
2019-04-20T02:14:52.197Z,6.76
2019-04-20T02:15:51.193Z,6.67
2019-04-20T02:16:51.719Z,6.67
2019-04-20T02:17:59.713Z,6.64
2019-04-20T02:19:08.229Z,6.59
2019-04-20T02:20:05.394Z,6.62
2019-04-20T02:21:05.169Z,6.59
2019-04-20T02:21:58.850Z,6.67
2019-04-20T02:23:01.617Z,6.56
2019-04-20T02:23:51.531Z,6.56
2019-04-20T02:24:46.781Z,6.66
2019-04-20T02:25:45.978Z,6.58
2019-04-20T02:26:47.150Z,6.58
2019-04-20T02:27:51.814Z,6.54
2019-04-20T02:29:13.506Z,6.54
2019-04-20T02:30:14.372Z,6.52
2019-04-20T02:31:23.475Z,6.55
2019-04-20T02:32:26.617Z,6.52
2019-04-20T02:33:32.334Z,6.54
2019-04-20T02:34:23.884Z,6.58
2019-04-20T02:35:16.849Z,6.51
2019-04-20T02:36:42.918Z,6.55
2019-04-20T02:37:45.102Z,6.51
2019-04-20T02:39:37.971Z,6.48
2019-04-20T02:40:15.957Z,6.54
2019-04-20T02:41:17.811Z,6.54
2019-04-20T02:42:19.701Z,6.51
2019-04-20T02:43:21.648Z,6.49
2019-04-20T02:45:28.241Z,6.54
2019-04-20T02:46:18.478Z,6.46
2019-04-20T02:47:25.812Z,6.54
2019-04-20T02:48:15.924Z,6.58
2019-04-20T02:49:37.024Z,6.46
2019-04-20T02:50:24.979Z,6.54
2019-04-20T02:51:13.261Z,6.44
2019-04-20T02:52:20.942Z,6.44
2019-04-20T02:55:15.351Z,6.54
2019-04-20T02:56:29.700Z,6.52
2019-04-20T02:57:22.460Z,6.49
2019-04-20T02:58:15.322Z,6.43
2019-04-20T03:00:12.281Z,6.52
2019-04-20T03:01:11.991Z,6.46
2019-04-20T03:02:06.035Z,6.49
2019-04-20T03:02:55.940Z,6.54
2019-04-20T03:03:51.130Z,6.48
2019-04-20T03:04:56.233Z,6.44
2019-04-20T03:06:01.384Z,6.38
2019-04-20T03:06:59.777Z,6.38
2019-04-20T03:08:06.462Z,6.38
2019-04-20T03:09:09.000Z,6.41
2019-04-20T03:10:06.529Z,6.33
2019-04-20T03:11:06.196Z,6.40
2019-04-20T03:12:09.216Z,6.34
2019-04-20T03:13:08.055Z,6.30
2019-04-20T03:14:03.990Z,6.37
2019-04-20T03:14:59.721Z,6.36
2019-04-20T03:16:05.425Z,6.34
2019-04-20T03:17:10.393Z,6.31
2019-04-20T03:18:11.739Z,6.38
2019-04-20T03:19:03.162Z,6.33
2019-04-20T03:19:58.256Z,6.37
2019-04-20T03:21:08.131Z,6.27
2019-04-20T03:22:09.091Z,6.22
2019-04-20T03:23:24.639Z,6.25
2019-04-20T03:24:15.887Z,6.17
2019-04-20T03:25:08.162Z,6.17
2019-04-20T03:26:05.328Z,6.14
2019-04-20T03:26:59.905Z,6.18
2019-04-20T03:28:05.135Z,6.11
2019-04-20T03:29:01.406Z,6.08
2019-04-20T03:30:07.693Z,6.08
2019-04-20T03:34:41.355Z,6.09
2019-04-20T03:36:16.737Z,6.03
2019-04-20T03:37:07.078Z,6.04
2019-04-20T03:38:06.018Z,6.01
2019-04-20T03:39:01.466Z,6.04
2019-04-20T03:39:56.880Z,6.01
2019-04-20T03:40:57.156Z,6.01
2019-04-20T03:41:48.762Z,6.04
2019-04-20T03:42:44.673Z,5.96
2019-04-20T03:43:44.092Z,5.99
2019-04-20T03:44:51.198Z,5.91
2019-04-20T03:45:51.711Z,5.90
2019-04-20T03:46:52.235Z,5.91
2019-04-20T03:47:58.705Z,5.96
2019-04-20T03:49:01.098Z,5.97
2019-04-20T03:50:08.635Z,5.96
2019-04-20T03:51:04.587Z,5.97
2019-04-20T03:52:03.668Z,5.91
2019-04-20T03:53:11.016Z,5.97
2019-04-20T03:54:05.404Z,5.96
2019-04-20T03:54:55.497Z,5.97
2019-04-20T03:55:56.810Z,5.89
2019-04-20T03:57:07.760Z,5.93
2019-04-20T03:58:04.487Z,5.99
2019-04-20T03:58:56.182Z,6.06
2019-04-20T04:00:04.579Z,5.97
2019-04-20T04:00:59.255Z,6.06
2019-04-20T04:03:12.529Z,6.03
2019-04-20T04:04:10.973Z,5.94
2019-04-20T04:05:05.523Z,6.01
2019-04-20T04:05:59.041Z,6.00
2019-04-20T04:06:49.930Z,5.90
2019-04-20T04:07:50.904Z,6.04
2019-04-20T04:08:58.953Z,5.99
2019-04-20T04:10:00.782Z,5.89
2019-04-20T04:11:01.478Z,5.86
2019-04-20T04:11:58.595Z,5.89
2019-04-20T04:12:46.451Z,5.93
2019-04-20T04:13:43.834Z,5.91
2019-04-20T04:14:43.410Z,5.91
2019-04-20T04:15:50.104Z,5.94
2019-04-20T04:16:50.926Z,5.93
2019-04-20T04:17:45.618Z,5.96
2019-04-20T04:18:47.346Z,5.89
2019-04-20T04:19:52.078Z,5.90
2019-04-20T04:20:49.989Z,5.86
2019-04-20T04:21:59.197Z,5.86
2019-04-20T04:23:01.348Z,5.89
2019-04-20T04:23:59.952Z,5.89
2019-04-20T04:24:57.037Z,5.91
2019-04-20T04:26:00.686Z,5.90
2019-04-20T04:26:58.353Z,5.86
2019-04-20T04:28:01.388Z,5.78
2019-04-20T04:29:02.756Z,5.81
2019-04-20T04:30:01.761Z,5.90
2019-04-20T04:31:04.093Z,5.82
2019-04-20T04:32:12.319Z,5.93
2019-04-20T04:34:02.393Z,5.89
2019-04-20T04:34:57.978Z,5.78
2019-04-20T04:35:56.825Z,5.93
2019-04-20T04:37:07.660Z,5.86
2019-04-20T04:38:02.718Z,5.93
2019-04-20T04:39:03.678Z,5.89
2019-04-20T04:40:14.686Z,5.93
2019-04-20T04:42:14.618Z,5.89
2019-04-20T04:43:05.253Z,5.93
2019-04-20T04:43:58.835Z,5.91
2019-04-20T04:44:50.607Z,5.93
2019-04-20T04:45:42.750Z,5.94
2019-04-20T04:46:53.397Z,5.89
2019-04-20T04:47:42.950Z,5.99
2019-04-20T04:48:45.939Z,5.91
2019-04-20T04:49:44.884Z,5.97
2019-04-20T04:50:49.581Z,5.97
2019-04-20T04:51:52.014Z,5.99
2019-04-20T04:52:52.176Z,6.03
2019-04-20T04:53:52.969Z,6.01
2019-04-20T04:54:51.331Z,6.04
2019-04-20T04:55:51.007Z,6.09
2019-04-20T04:56:42.480Z,6.11
2019-04-20T04:57:43.235Z,6.17
2019-04-20T04:58:42.669Z,6.28
2019-04-20T04:59:42.588Z,6.18
2019-04-20T05:00:42.664Z,6.18
2019-04-20T05:01:46.989Z,6.21
2019-04-20T05:02:48.907Z,6.19
2019-04-20T05:04:09.821Z,6.19
2019-04-20T05:05:05.599Z,6.33
2019-04-20T05:06:01.374Z,6.27
2019-04-20T05:06:59.548Z,6.25
2019-04-20T05:07:51.807Z,6.33
2019-04-20T05:08:47.384Z,6.41
2019-04-20T05:09:42.918Z,6.34
2019-04-20T05:10:42.174Z,6.44
2019-04-20T05:11:42.750Z,6.38
2019-04-20T05:12:42.326Z,6.48
2019-04-20T05:13:50.586Z,6.40
2019-04-20T05:14:53.909Z,6.52
2019-04-20T05:15:53.956Z,6.52
2019-04-20T05:16:59.340Z,6.56
2019-04-20T05:18:04.441Z,6.52
2019-04-20T05:19:07.723Z,6.62
2019-04-20T05:20:02.669Z,6.61
2019-04-20T05:21:04.409Z,6.59
2019-04-20T05:22:04.016Z,6.64
2019-04-20T05:23:01.160Z,6.62
2019-04-20T05:23:59.106Z,6.74
2019-04-20T05:25:02.086Z,6.71
2019-04-20T05:26:10.096Z,6.85
2019-04-20T05:27:01.972Z,6.79
2019-04-20T05:28:03.029Z,6.94
2019-04-20T05:28:52.750Z,6.95
2019-04-20T05:29:42.834Z,7.02
2019-04-20T05:30:46.787Z,7.02
2019-04-20T05:31:49.346Z,7.09
2019-04-20T05:32:51.395Z,7.16
2019-04-20T05:34:11.469Z,7.07
2019-04-20T05:35:05.006Z,7.23
2019-04-20T05:36:03.072Z,7.23
2019-04-20T05:36:57.957Z,7.17
2019-04-20T05:38:08.822Z,7.32
2019-04-20T05:39:13.100Z,7.39
2019-04-20T05:40:07.428Z,7.49
2019-04-20T05:41:01.654Z,7.50
2019-04-20T05:41:58.192Z,7.55
2019-04-20T05:43:00.422Z,7.52
2019-04-20T05:43:56.597Z,7.64
2019-04-20T05:44:59.902Z,7.77
2019-04-20T05:45:53.953Z,7.72
2019-04-20T05:47:01.034Z,7.83
2019-04-20T05:47:58.274Z,7.89
2019-04-20T05:49:04.526Z,7.86
2019-04-20T05:49:59.803Z,7.89
2019-04-20T05:50:57.504Z,8.00
2019-04-20T05:52:02.610Z,8.08
2019-04-20T05:53:09.942Z,8.15
2019-04-20T05:54:02.586Z,8.23
2019-04-20T05:55:04.176Z,8.23
2019-04-20T05:55:59.260Z,8.29
2019-04-20T05:57:07.914Z,8.23
2019-04-20T05:58:03.599Z,8.38
2019-04-20T05:58:59.821Z,8.38
2019-04-20T06:00:23.482Z,8.50
2019-04-20T06:01:08.870Z,8.52
2019-04-20T06:02:05.011Z,8.65
2019-04-20T06:02:57.793Z,8.65
2019-04-20T06:03:57.703Z,8.73
2019-04-20T06:05:05.647Z,8.79
2019-04-20T06:06:03.518Z,8.89
2019-04-20T06:07:06.042Z,8.87
2019-04-20T06:07:59.088Z,8.99
2019-04-20T06:09:06.819Z,9.08
2019-04-20T06:10:05.881Z,9.13
2019-04-20T06:11:02.123Z,9.21
2019-04-20T06:13:00.261Z,9.31
2019-04-20T06:13:50.650Z,9.36
2019-04-20T06:14:55.867Z,9.46
2019-04-20T06:16:02.453Z,9.54
2019-04-20T06:17:02.934Z,9.64
2019-04-20T06:17:59.750Z,9.66
2019-04-20T06:19:06.832Z,9.86
2019-04-20T06:20:09.015Z,9.87
2019-04-20T06:21:02.387Z,10.01
2019-04-20T06:22:03.501Z,10.11
2019-04-20T06:23:09.377Z,10.27
2019-04-20T06:24:05.948Z,10.25
2019-04-20T06:25:19.764Z,10.26
2019-04-20T06:26:15.500Z,10.34
2019-04-20T06:27:16.020Z,10.55
2019-04-20T06:28:02.336Z,10.53
2019-04-20T06:28:54.073Z,10.66
2019-04-20T06:29:55.811Z,10.79
2019-04-20T06:30:52.828Z,10.79
2019-04-20T06:32:06.603Z,10.88
2019-04-20T06:33:11.411Z,10.88
2019-04-20T06:35:02.712Z,11.07
2019-04-20T06:36:16.355Z,11.17
2019-04-20T06:36:57.332Z,11.28
2019-04-20T06:38:10.163Z,11.51
2019-04-20T06:40:08.281Z,12.10
2019-04-20T06:41:13.905Z,12.62
2019-04-20T06:42:18.022Z,13.15
2019-04-20T06:43:05.132Z,13.78
2019-04-20T06:44:08.794Z,14.52
2019-04-20T06:45:07.053Z,15.11
2019-04-20T06:46:08.264Z,15.69
2019-04-20T06:47:08.948Z,16.23
2019-04-20T06:48:11.658Z,16.76
2019-04-20T06:49:15.146Z,17.22
2019-04-20T06:50:01.487Z,17.58
2019-04-20T06:51:00.919Z,17.95
2019-04-20T06:52:12.773Z,18.36
2019-04-20T06:52:54.204Z,18.55
2019-04-20T06:53:52.624Z,18.78
2019-04-20T06:54:57.774Z,18.90
2019-04-20T06:56:06.770Z,18.88
2019-04-20T06:57:01.636Z,19.10
2019-04-20T06:58:00.744Z,19.31
2019-04-20T06:59:08.295Z,19.07
2019-04-20T07:00:05.833Z,19.07
2019-04-20T07:01:04.132Z,19.22
2019-04-20T07:02:02.967Z,19.47
2019-04-20T07:02:58.912Z,19.73
2019-04-20T07:04:27.299Z,20.17
2019-04-20T07:04:59.725Z,20.41
2019-04-20T07:06:06.165Z,20.66
2019-04-20T07:07:10.222Z,20.95
2019-04-20T07:08:33.156Z,20.82
2019-04-20T07:09:06.444Z,20.82
2019-04-20T07:10:08.787Z,20.72
2019-04-20T07:11:07.262Z,20.97
2019-04-20T07:11:58.088Z,21.12
2019-04-20T07:12:55.246Z,21.28
2019-04-20T07:13:50.562Z,21.28
2019-04-20T07:14:49.813Z,21.13
2019-04-20T07:15:53.100Z,20.79
2019-04-20T07:16:59.910Z,20.67
2019-04-20T07:18:03.206Z,20.77
2019-04-20T07:19:01.326Z,20.84
2019-04-20T07:19:56.429Z,21.09
2019-04-20T07:21:00.526Z,21.14
2019-04-20T07:22:14.956Z,21.65
2019-04-20T07:23:11.391Z,21.88
2019-04-20T07:24:07.963Z,22.22
2019-04-20T07:25:01.378Z,22.25
2019-04-20T07:26:07.757Z,22.15
2019-04-20T07:27:04.803Z,22.22
2019-04-20T07:28:02.866Z,22.20
2019-04-20T07:29:08.754Z,22.35
2019-04-20T07:30:03.501Z,22.67
2019-04-20T07:31:01.701Z,22.79
2019-04-20T07:31:51.963Z,22.82
2019-04-20T07:32:58.450Z,22.90
2019-04-20T07:33:58.049Z,23.22
2019-04-20T07:35:03.062Z,23.27
2019-04-20T07:35:57.913Z,23.35
2019-04-20T07:37:20.407Z,23.33
2019-04-20T07:38:25.530Z,23.50
2019-04-20T07:38:59.731Z,23.73
2019-04-20T07:40:01.125Z,23.75
2019-04-20T07:41:01.772Z,23.87
2019-04-20T07:42:01.766Z,23.79
2019-04-20T07:43:00.239Z,23.27
2019-04-20T07:44:24.823Z,22.94
2019-04-20T07:45:07.725Z,22.64
2019-04-20T07:46:04.300Z,22.73
2019-04-20T07:47:08.857Z,23.16
2019-04-20T07:48:07.505Z,23.57
2019-04-20T07:49:01.584Z,23.70
2019-04-20T07:49:55.440Z,23.83
2019-04-20T07:50:53.379Z,23.76
2019-04-20T07:51:42.447Z,23.83
2019-04-20T07:52:51.444Z,23.79
2019-04-20T07:53:59.526Z,23.28
2019-04-20T07:55:18.325Z,23.07
2019-04-20T07:56:05.150Z,23.15
2019-04-20T07:57:02.090Z,23.25
2019-04-20T07:57:55.150Z,23.55
2019-04-20T07:58:45.970Z,23.54
2019-04-20T07:59:59.072Z,23.61
2019-04-20T08:01:10.273Z,23.50
2019-04-20T08:02:08.300Z,23.51
2019-04-20T08:03:03.555Z,23.63
2019-04-20T08:04:06.385Z,23.84
2019-04-20T08:04:52.441Z,24.09
2019-04-20T08:05:48.719Z,24.00
2019-04-20T08:06:46.878Z,24.03
2019-04-20T08:07:49.477Z,24.13
2019-04-20T08:08:54.068Z,24.12
2019-04-20T08:09:46.578Z,24.46
2019-04-20T08:10:53.922Z,24.47
2019-04-20T08:12:09.527Z,24.57
2019-04-20T08:13:04.894Z,24.57
2019-04-20T08:14:01.971Z,24.77
2019-04-20T08:15:04.738Z,24.85
2019-04-20T08:16:00.988Z,24.45
2019-04-20T08:17:21.324Z,24.00
2019-04-20T08:17:59.986Z,23.50
2019-04-20T08:19:02.048Z,23.39
2019-04-20T08:20:00.128Z,23.40
2019-04-20T08:21:17.901Z,23.78
2019-04-20T08:22:01.922Z,24.31
2019-04-20T08:22:58.781Z,24.87
2019-04-20T08:23:55.682Z,25.08
2019-04-20T08:24:55.244Z,25.50
2019-04-20T08:25:49.769Z,25.85
2019-04-20T08:26:46.331Z,26.15
2019-04-20T08:27:39.903Z,25.85
2019-04-20T08:28:46.484Z,25.80
2019-04-20T08:29:52.965Z,25.82
2019-04-20T08:30:56.077Z,25.90
2019-04-20T08:31:56.006Z,26.25
2019-04-20T08:32:54.192Z,26.60
2019-04-20T08:34:07.698Z,26.87
2019-04-20T08:34:59.188Z,26.89
2019-04-20T08:36:09.260Z,26.95
2019-04-20T08:37:01.040Z,27.06
2019-04-20T08:38:14.903Z,26.87
2019-04-20T08:40:01.505Z,27.27
2019-04-20T08:40:59.526Z,27.27
2019-04-20T08:42:00.536Z,27.13
2019-04-20T08:43:12.895Z,27.51
2019-04-20T08:43:59.051Z,27.82
2019-04-20T08:45:03.615Z,28.25
2019-04-20T08:45:58.903Z,28.81
2019-04-20T08:47:10.284Z,28.74
2019-04-20T08:48:04.138Z,28.66
2019-04-20T08:49:03.351Z,28.55
2019-04-20T08:50:05.100Z,28.14
2019-04-20T08:51:02.569Z,28.27
2019-04-20T08:53:12.803Z,28.48
2019-04-20T08:53:56.957Z,28.21
2019-04-20T08:55:01.229Z,28.30
2019-04-20T08:55:54.284Z,28.04
2019-04-20T08:56:44.846Z,27.79
2019-04-20T08:57:39.953Z,27.66
2019-04-20T08:58:39.138Z,27.14
2019-04-20T08:59:40.152Z,26.92
2019-04-20T09:00:48.569Z,26.91
2019-04-20T09:01:40.707Z,27.07
2019-04-20T09:02:41.217Z,27.32
2019-04-20T09:03:51.710Z,27.37
2019-04-20T09:04:48.953Z,27.39
2019-04-20T09:05:48.988Z,27.40
2019-04-20T09:06:54.644Z,27.51
2019-04-20T09:07:48.915Z,27.75
2019-04-20T09:08:55.106Z,27.78
2019-04-20T09:10:04.912Z,27.77
2019-04-20T09:10:54.176Z,27.67
2019-04-20T09:12:01.265Z,27.74
2019-04-20T09:12:54.897Z,27.63
2019-04-20T09:13:45.514Z,27.93
2019-04-20T09:14:40.275Z,28.31
2019-04-20T09:15:38.730Z,28.30
2019-04-20T09:16:47.889Z,27.97
2019-04-20T09:17:46.566Z,27.82
2019-04-20T09:18:49.369Z,27.65
2019-04-20T09:19:46.817Z,27.77
2019-04-20T09:20:47.509Z,27.90
2019-04-20T09:21:48.158Z,27.78
2019-04-20T09:22:49.448Z,27.72
2019-04-20T09:23:52.202Z,27.78
2019-04-20T09:25:01.888Z,28.03
2019-04-20T09:26:02.291Z,28.25
2019-04-20T09:26:57.307Z,28.15
2019-04-20T09:27:45.721Z,28.41
2019-04-20T09:28:54.411Z,28.68
2019-04-20T09:29:49.471Z,28.62
2019-04-20T09:30:50.462Z,28.64
2019-04-20T09:31:51.918Z,28.52
2019-04-20T09:32:59.548Z,28.49
2019-04-20T09:33:55.627Z,28.67
2019-04-20T09:34:59.670Z,28.67
2019-04-20T09:35:53.618Z,28.58
2019-04-20T09:36:49.318Z,28.67
2019-04-20T09:37:53.416Z,28.74
2019-04-20T09:38:47.790Z,28.78
2019-04-20T09:39:53.324Z,28.92
2019-04-20T09:40:59.715Z,28.98
2019-04-20T09:41:59.253Z,29.09
2019-04-20T09:42:38.614Z,29.14
2019-04-20T09:43:38.975Z,29.15
2019-04-20T09:44:43.874Z,28.95
2019-04-20T09:45:44.147Z,28.78
2019-04-20T09:46:44.386Z,28.78
2019-04-20T09:47:43.561Z,28.54
2019-04-20T09:48:42.915Z,28.64
2019-04-20T09:49:49.621Z,28.90
2019-04-20T09:51:00.828Z,29.11
2019-04-20T09:51:56.380Z,29.31
2019-04-20T09:52:59.555Z,29.34
2019-04-20T09:53:48.476Z,29.53
2019-04-20T09:54:56.355Z,29.80
2019-04-20T09:55:59.235Z,30.13
2019-04-20T09:57:00.787Z,30.55
2019-04-20T09:57:59.113Z,30.99
2019-04-20T09:59:01.323Z,31.29
2019-04-20T09:59:57.512Z,31.62
2019-04-20T10:00:53.914Z,31.81
2019-04-20T10:01:45.316Z,31.96
2019-04-20T10:02:39.951Z,31.85
2019-04-20T10:03:38.838Z,31.62
2019-04-20T10:04:39.816Z,31.35
2019-04-20T10:05:38.523Z,31.41
2019-04-20T10:06:39.371Z,31.38
2019-04-20T10:07:39.267Z,31.53
2019-04-20T10:08:43.516Z,31.69
2019-04-20T10:09:43.526Z,31.99
2019-04-20T10:10:42.030Z,32.19
2019-04-20T10:11:42.024Z,32.33
2019-04-20T10:12:39.737Z,32.72
2019-04-20T10:13:38.504Z,32.94
2019-04-20T10:14:38.548Z,32.92
2019-04-20T10:15:39.651Z,32.85
2019-04-20T10:16:39.707Z,32.82
2019-04-20T10:17:38.706Z,32.77
2019-04-20T10:18:44.071Z,32.85
2019-04-20T10:19:40.960Z,33.15
2019-04-20T10:20:40.572Z,33.56
2019-04-20T10:21:38.490Z,33.84
2019-04-20T10:22:38.487Z,33.90
2019-04-20T10:23:38.756Z,34.06
2019-04-20T10:24:38.846Z,34.06
2019-04-20T10:25:38.540Z,34.12
2019-04-20T10:26:38.717Z,33.94
2019-04-20T10:27:39.763Z,33.98
2019-04-20T10:28:39.395Z,34.12
2019-04-20T10:29:39.737Z,34.31
2019-04-20T10:30:38.793Z,34.56
2019-04-20T10:31:45.495Z,34.87
2019-04-20T10:32:43.037Z,35.06
2019-04-20T10:33:39.621Z,35.28
2019-04-20T10:34:38.863Z,35.19
2019-04-20T10:35:39.443Z,35.40
2019-04-20T10:36:39.581Z,35.50
2019-04-20T10:37:39.680Z,35.55
2019-04-20T10:38:38.465Z,35.66
2019-04-20T10:39:38.562Z,35.16
2019-04-20T10:40:50.742Z,34.73
2019-04-20T10:41:46.982Z,34.49
2019-04-20T10:42:38.465Z,34.46
2019-04-20T10:43:38.812Z,34.37
2019-04-20T10:44:38.929Z,33.81
2019-04-20T10:45:39.180Z,33.59
2019-04-20T10:46:38.853Z,33.51
2019-04-20T10:47:38.989Z,33.49
2019-04-20T10:48:45.173Z,33.81
2019-04-20T10:49:38.540Z,34.08
2019-04-20T10:50:38.956Z,33.95
2019-04-20T10:51:39.810Z,33.34
2019-04-20T10:52:38.457Z,33.47
2019-04-20T10:53:38.496Z,33.56
2019-04-20T10:54:38.561Z,33.53
2019-04-20T10:55:39.640Z,33.66
2019-04-20T10:56:39.381Z,33.69
2019-04-20T10:57:39.702Z,33.57
2019-04-20T10:58:38.455Z,33.65
2019-04-20T10:59:39.435Z,33.81
2019-04-20T11:00:39.605Z,33.73
2019-04-20T11:01:38.467Z,33.88
2019-04-20T11:02:39.607Z,34.06
2019-04-20T11:03:38.537Z,33.65
2019-04-20T11:04:38.817Z,33.21
2019-04-20T11:05:38.453Z,33.01
2019-04-20T11:06:38.685Z,33.32
2019-04-20T11:07:38.794Z,33.59
2019-04-20T11:08:38.506Z,33.87
2019-04-20T11:09:38.767Z,33.82
2019-04-20T11:10:51.082Z,33.81
2019-04-20T11:11:38.826Z,33.65
2019-04-20T11:12:38.450Z,33.53
2019-04-20T11:13:39.378Z,33.35
2019-04-20T11:14:40.903Z,33.49
2019-04-20T11:15:38.789Z,33.59
2019-04-20T11:16:38.449Z,33.54
2019-04-20T11:17:39.492Z,33.73
2019-04-20T11:18:39.631Z,34.02
2019-04-20T11:19:39.228Z,34.32
2019-04-20T11:20:39.410Z,33.79
2019-04-20T11:21:38.725Z,33.28
2019-04-20T11:22:38.446Z,33.07
2019-04-20T11:23:38.446Z,32.94
2019-04-20T11:24:38.640Z,33.07
2019-04-20T11:25:38.445Z,33.06
2019-04-20T11:26:40.549Z,33.21
2019-04-20T11:27:38.455Z,33.56
2019-04-20T11:28:38.448Z,33.82
2019-04-20T11:29:38.446Z,33.98
2019-04-20T11:30:38.443Z,34.52
2019-04-20T11:31:42.236Z,34.88
2019-04-20T11:32:38.444Z,35.19
2019-04-20T11:33:38.470Z,35.26
2019-04-20T11:34:40.341Z,35.31
2019-04-20T11:35:41.509Z,35.26
2019-04-20T11:36:39.204Z,35.33
2019-04-20T11:37:39.370Z,35.37
2019-04-20T11:38:38.737Z,34.94
2019-04-20T11:39:39.119Z,34.47
2019-04-20T11:40:39.165Z,34.05
2019-04-20T11:41:38.967Z,33.73
2019-04-20T11:42:39.585Z,33.88
2019-04-20T11:43:39.750Z,34.00
2019-04-20T11:44:38.446Z,34.39
2019-04-20T11:45:38.575Z,34.87
2019-04-20T11:46:38.779Z,34.87
2019-04-20T11:47:39.702Z,34.75
2019-04-20T11:48:39.386Z,34.88
2019-04-20T11:49:39.647Z,34.92
2019-04-20T11:50:39.779Z,34.96
2019-04-20T11:51:39.456Z,34.46
2019-04-20T11:52:43.863Z,34.35
2019-04-20T11:53:38.616Z,34.88
2019-04-20T11:54:38.441Z,35.52
2019-04-20T11:55:38.446Z,35.99
2019-04-20T11:56:42.110Z,36.35
2019-04-20T11:57:39.535Z,36.35
2019-04-20T11:58:38.815Z,36.37
2019-04-20T11:59:39.050Z,36.16
2019-04-20T12:00:47.168Z,36.50
2019-04-20T12:01:49.228Z,36.71
2019-04-20T12:02:42.317Z,36.94
2019-04-20T12:03:49.637Z,37.05
2019-04-20T12:04:48.879Z,37.27
2019-04-20T12:05:44.423Z,37.51
2019-04-20T12:06:39.103Z,37.86
2019-04-20T12:07:38.450Z,37.12
2019-04-20T12:08:40.507Z,36.78
2019-04-20T12:09:39.688Z,36.76
2019-04-20T12:10:39.181Z,36.94
2019-04-20T12:11:53.470Z,36.93
2019-04-20T12:12:42.655Z,36.64
2019-04-20T12:13:38.636Z,36.39
2019-04-20T12:14:38.796Z,36.65
2019-04-20T12:15:38.990Z,36.62
2019-04-20T12:16:39.594Z,36.35
2019-04-20T12:17:39.718Z,36.32
2019-04-20T12:18:38.464Z,36.85
2019-04-20T12:19:39.714Z,36.88
2019-04-20T12:20:38.911Z,36.71
2019-04-20T12:21:39.066Z,36.29
2019-04-20T12:22:38.464Z,36.38
2019-04-20T12:23:38.470Z,36.46
2019-04-20T12:24:38.464Z,36.72
2019-04-20T12:25:40.873Z,36.66
2019-04-20T12:26:38.697Z,36.62
2019-04-20T12:27:41.087Z,36.88
2019-04-20T12:28:39.948Z,37.17
2019-04-20T12:29:38.718Z,36.87
2019-04-20T12:30:39.735Z,37.03
2019-04-20T12:31:39.672Z,36.95
2019-04-20T12:32:42.917Z,37.03
2019-04-20T12:33:38.471Z,37.17
2019-04-20T12:34:39.302Z,37.13
2019-04-20T12:35:38.508Z,36.65
2019-04-20T12:36:39.493Z,35.78
2019-04-20T12:37:38.943Z,35.23
2019-04-20T12:38:39.129Z,34.91
2019-04-20T12:39:39.422Z,34.08
2019-04-20T12:40:39.820Z,33.73
2019-04-20T12:41:44.880Z,33.75
2019-04-20T12:42:39.079Z,33.32
2019-04-20T12:43:38.488Z,33.29
2019-04-20T12:44:39.636Z,33.59
2019-04-20T12:45:39.905Z,34.21
2019-04-20T12:46:38.489Z,34.70
2019-04-20T12:47:39.631Z,34.73
2019-04-20T12:48:39.699Z,34.89
2019-04-20T12:49:38.490Z,35.04
2019-04-20T12:50:39.548Z,34.94
2019-04-20T12:51:47.487Z,34.97
2019-04-20T12:52:38.729Z,35.02
2019-04-20T12:53:38.490Z,34.92
2019-04-20T12:54:41.240Z,34.96
2019-04-20T12:55:38.923Z,34.62
2019-04-20T12:56:38.490Z,34.08
2019-04-20T12:57:38.632Z,33.71
2019-04-20T12:58:40.525Z,33.57
2019-04-20T12:59:39.294Z,33.45
2019-04-20T13:00:39.394Z,33.32
2019-04-20T13:01:39.611Z,33.15
2019-04-20T13:02:38.489Z,32.65
2019-04-20T13:03:39.324Z,32.40
2019-04-20T13:04:39.471Z,31.88
2019-04-20T13:05:38.486Z,31.34
2019-04-20T13:06:39.166Z,30.98
2019-04-20T13:07:44.311Z,30.01
2019-04-20T13:08:44.138Z,29.61
2019-04-20T13:09:38.806Z,29.34
2019-04-20T13:10:38.477Z,29.19
2019-04-20T13:11:46.258Z,29.15
2019-04-20T13:12:38.473Z,29.19
2019-04-20T13:13:38.740Z,29.27
2019-04-20T13:14:38.472Z,29.33
2019-04-20T13:15:38.467Z,29.02
2019-04-20T13:16:38.709Z,28.70
2019-04-20T13:17:38.461Z,28.41
2019-04-20T13:18:39.205Z,28.36
2019-04-20T13:19:39.427Z,28.22
2019-04-20T13:20:39.629Z,28.11
2019-04-20T13:21:39.027Z,28.07
2019-04-20T13:22:39.080Z,27.99